Bentley, Illinois
Current Conditions -  °F | °C
As of 6:35 PM on Tuesday 25 Nov 2014 (Local Time) from KMQB Reporting Station
Clear Clear  
Wind Chill: 27°   Ceiling: Unl
Heat Index: 27°   Visibility: 10mi
Dew Point: 25°   Wind: 3mph
Humidity: 92%   Direction: 80°E
Pressure: 30.18"   Gusts: NA
Location:  40.4155°N, 91.0269°W
Report Text: KMQB 260035Z AUTO 08003KT 10SM CLR M03/M04 A3018 RMK AO2 T10281040
Loading
Personal Weather Stations






























Interactive Weather Map New forecast layout! Learn more

10-Day Weather Forecast

Advertisements
Track Severe Weather on mobile